Time;durP1;ratioP1;P1;durP2;ratioP2;P2;SDS_P1;SDS_P2;PMS_P1;PMS_P2;Temp;Humidity;BMP_temperature;BMP_pressure;BME280_temperature;BME280_humidity;BME280_pressure;Samples;Min_cycle;Max_cycle;Signal;HPM_P1;HPM_P2
2022/08/22 00:03:41;;;;;;;3.92;2.80;;;;;;;14.77;94.78;99922.69;10253926;28;20053;-70
2022/08/22 00:08:52;;;;;;;5.88;2.45;;;;;;;14.49;97.35;99925.88;10254233;29;20054;-71
2022/08/22 00:14:35;;;;;;;4.32;3.08;;;;;;;14.37;99.04;99922.00;10254153;28;20409;-70
2022/08/22 00:20:06;;;;;;;3.08;2.78;;;;;;;14.30;100.00;99917.97;10254209;29;20067;-71
2022/08/22 00:25:32;;;;;;;3.72;3.05;;;;;;;14.22;100.00;99918.34;10253774;29;20562;-70
2022/08/22 00:30:46;;;;;;;3.17;2.67;;;;;;;14.42;98.91;99919.13;10253246;29;20054;-70
2022/08/22 00:35:53;;;;;;;8.48;3.20;;;;;;;14.38;96.80;99926.34;10253350;28;20123;-71
2022/08/22 00:41:09;;;;;;;;;;;;;;;14.21;99.03;99931.63;10253254;28;20044;-70
2022/08/22 00:46:38;;;;;;;5.13;3.03;;;;;;;14.10;99.97;99927.72;10254323;28;19948;-70
2022/08/22 00:52:15;;;;;;;4.15;3.25;;;;;;;14.16;99.81;99933.63;10254026;28;20045;-71
2022/08/22 00:57:53;;;;;;;5.70;3.28;;;;;;;13.98;100.00;99940.66;10252302;29;20405;-71
2022/08/22 01:03:25;;;;;;;5.82;3.55;;;;;;;14.00;100.00;99946.72;10251127;28;20146;-71
2022/08/22 01:08:52;;;;;;;7.72;3.90;;;;;;;14.03;100.00;99936.00;10257975;28;20047;-70
2022/08/22 01:14:21;;;;;;;4.88;3.20;;;;;;;14.16;99.33;99936.28;10276343;28;20051;-70
2022/08/22 01:19:54;;;;;;;5.53;4.22;;;;;;;13.83;100.00;99950.16;10260178;29;20382;-71
2022/08/22 01:25:17;;;;;;;4.13;3.10;;;;;;;13.72;100.00;99944.50;10259468;28;20485;-72
2022/08/22 01:30:33;;;;;;;4.68;3.47;;;;;;;13.82;100.00;99944.03;10260254;29;20417;-72
2022/08/22 01:35:54;;;;;;;3.50;3.20;;;;;;;13.78;100.00;99947.72;10260173;28;20469;-72
2022/08/22 01:41:39;;;;;;;5.25;3.60;;;;;;;13.81;100.00;99941.44;10258117;29;20047;-72
2022/08/22 01:46:57;;;;;;;6.15;3.45;;;;;;;13.81;100.00;99954.63;10259419;28;20047;-71
2022/08/22 01:52:17;;;;;;;5.03;3.65;;;;;;;13.80;100.00;99950.28;10257318;29;20493;-71
2022/08/22 01:57:22;;;;;;;3.80;3.42;;;;;;;13.84;100.00;99947.44;10259402;28;20524;-71
2022/08/22 02:03:06;;;;;;;4.97;2.90;;;;;;;14.03;100.00;99942.16;10259450;28;20055;-71
2022/08/22 02:08:43;;;;;;;4.03;3.38;;;;;;;14.01;100.00;99941.38;10251289;29;20059;-71
2022/08/22 02:14:13;;;;;;;4.07;3.60;;;;;;;13.86;100.00;99950.88;10257731;28;20063;-71
2022/08/22 02:19:15;;;;;;;5.70;3.10;;;;;;;13.87;100.00;99954.38;10258295;28;20057;-71
2022/08/22 02:24:26;;;;;;;5.63;3.90;;;;;;;14.02;100.00;99955.44;10257611;28;20043;-71
2022/08/22 02:29:57;;;;;;;4.05;3.65;;;;;;;14.02;100.00;99956.28;10255859;29;20054;-71
2022/08/22 02:35:05;;;;;;;6.22;3.78;;;;;;;13.83;100.00;99958.94;10256970;28;20050;-71
2022/08/22 02:40:16;;;;;;;6.80;4.35;;;;;;;13.91;100.00;99960.38;10257420;29;20047;-71
2022/08/22 02:45:44;;;;;;;4.47;4.18;;;;;;;13.86;100.00;99965.88;10257358;28;20043;-71
2022/08/22 02:51:00;;;;;;;4.80;4.40;;;;;;;13.86;100.00;99961.44;10256492;28;20120;-72
2022/08/22 02:56:13;;;;;;;5.30;4.93;;;;;;;13.79;100.00;99956.50;10256454;28;20118;-72
2022/08/22 03:01:27;;;;;;;6.00;5.40;;;;;;;13.78;100.00;99960.94;10257466;28;20047;-71
2022/08/22 03:06:40;;;;;;;5.07;4.55;;;;;;;13.89;100.00;99966.56;10254229;29;20047;-71
2022/08/22 03:11:48;;;;;;;6.18;4.72;;;;;;;13.91;100.00;99961.22;10256108;28;20050;-72
2022/08/22 03:17:12;;;;;;;5.38;4.82;;;;;;;14.08;100.00;99966.59;10270320;28;20035;-71
2022/08/22 03:22:57;;;;;;;5.30;4.55;;;;;;;14.02;100.00;99958.94;10256358;28;20122;-71
2022/08/22 03:28:05;;;;;;;5.32;4.82;;;;;;;13.93;100.00;99956.72;10239232;28;20059;-70
2022/08/22 03:33:21;;;;;;;5.78;4.97;;;;;;;13.96;100.00;99942.53;10256961;28;20107;-70
2022/08/22 03:38:32;;;;;;;5.78;4.70;;;;;;;13.94;100.00;99949.63;10253512;29;20047;-69
2022/08/22 03:43:59;;;;;;;5.10;4.45;;;;;;;13.86;100.00;99950.88;10253738;29;20046;-71
2022/08/22 03:49:16;;;;;;;;;;;;;;;13.71;100.00;99942.78;10253975;28;20054;-70
2022/08/22 03:54:42;;;;;;;9.43;4.50;;;;;;;13.70;100.00;99951.66;10252971;29;19927;-70
2022/08/22 04:00:28;;;;;;;6.75;5.00;;;;;;;13.69;100.00;99942.03;10254403;28;20118;-70
2022/08/22 04:05:57;;;;;;;5.53;4.95;;;;;;;13.66;100.00;99942.16;10247014;28;20122;-69
2022/08/22 04:11:16;;;;;;;5.30;4.80;;;;;;;13.85;100.00;99945.66;10245656;29;20061;-69
2022/08/22 04:16:35;;;;;;;5.30;4.72;;;;;;;13.85;100.00;99948.28;10252349;29;20058;-69
2022/08/22 04:21:49;;;;;;;5.13;4.30;;;;;;;13.85;100.00;99950.94;10253580;28;20114;-69
2022/08/22 04:27:01;;;;;;;5.63;5.10;;;;;;;13.83;100.00;99955.44;10253269;28;20122;-70
2022/08/22 04:32:16;;;;;;;5.20;4.60;;;;;;;13.85;100.00;99957.06;10254530;28;20051;-70
2022/08/22 04:37:23;;;;;;;4.70;4.20;;;;;;;13.94;100.00;99961.06;10252372;29;20070;-70
2022/08/22 04:42:35;;;;;;;4.50;4.13;;;;;;;13.99;100.00;99964.38;10256707;28;20051;-70
2022/08/22 04:47:52;;;;;;;5.68;5.13;;;;;;;13.97;100.00;99962.72;10260636;28;20048;-71
2022/08/22 04:52:57;;;;;;;9.98;5.25;;;;;;;14.03;100.00;99958.03;10262020;28;20416;-70
2022/08/22 04:58:09;;;;;;;4.90;4.40;;;;;;;14.09;100.00;99964.78;10260218;28;20413;-70
2022/08/22 05:03:15;;;;;;;5.28;4.30;;;;;;;14.19;100.00;99967.84;10274954;28;20143;-70
2022/08/22 05:08:24;;;;;;;6.53;5.90;;;;;;;14.24;100.00;99965.84;10259965;28;20040;-71
2022/08/22 05:13:33;;;;;;;4.88;4.45;;;;;;;14.30;100.00;99973.50;10261778;28;20386;-70
2022/08/22 05:18:41;;;;;;;6.32;4.50;;;;;;;14.49;100.00;99979.63;10258925;29;20095;-70
2022/08/22 05:23:52;;;;;;;5.07;4.57;;;;;;;14.64;100.00;99984.16;10261474;29;20055;-70
2022/08/22 05:29:01;;;;;;;7.35;5.55;;;;;;;14.54;100.00;99988.19;10277138;28;20052;-70
2022/08/22 05:34:10;;;;;;;7.50;6.68;;;;;;;14.59;100.00;99994.13;10264842;28;20102;-70
2022/08/22 05:39:17;;;;;;;7.60;6.65;;;;;;;14.78;100.00;99995.84;10262489;28;20409;-70
2022/08/22 05:44:26;;;;;;;5.25;4.85;;;;;;;14.91;100.00;100006.69;10261900;28;20409;-70
2022/08/22 05:49:46;;;;;;;7.18;5.65;;;;;;;14.91;100.00;100007.53;10307498;22;20131;-74
2022/08/22 05:55:03;;;;;;;6.00;5.45;;;;;;;14.98;98.89;100000.16;10444048;28;20079;-74
2022/08/22 06:00:13;;;;;;;6.00;4.70;;;;;;;15.04;98.12;100013.06;10444842;28;20049;-73
2022/08/22 06:05:24;;;;;;;7.22;6.38;;;;;;;15.08;96.22;100010.19;10462570;28;20037;-73
2022/08/22 06:10:50;;;;;;;5.50;4.43;;;;;;;15.30;95.63;100001.16;10443987;28;20124;-73
2022/08/22 06:16:10;;;;;;;6.00;4.90;;;;;;;15.32;95.81;100008.09;10445594;28;20078;-74
2022/08/22 06:21:21;;;;;;;6.30;5.40;;;;;;;15.39;95.72;100016.56;10461816;28;20048;-74
2022/08/22 06:26:30;;;;;;;8.43;5.85;;;;;;;15.38;96.38;100018.38;10461177;28;20041;-73
2022/08/22 06:31:36;;;;;;;6.85;5.70;;;;;;;15.47;94.69;100018.81;10460730;28;20049;-73
2022/08/22 06:36:42;;;;;;;9.77;5.30;;;;;;;15.62;93.80;100016.22;10460977;28;20040;-74
2022/08/22 06:41:47;;;;;;;5.45;4.53;;;;;;;15.81;93.88;100013.50;10462162;28;20045;-74
2022/08/22 06:46:53;;;;;;;5.55;4.82;;;;;;;16.24;90.84;100019.09;10460965;28;20065;-74
2022/08/22 06:52:06;;;;;;;6.13;5.63;;;;;;;16.18;90.88;100021.25;10460624;28;20041;-73
2022/08/22 06:57:25;;;;;;;5.80;5.30;;;;;;;16.27;91.21;100015.41;10460965;28;20064;-75
2022/08/22 07:02:35;;;;;;;6.15;5.38;;;;;;;16.44;89.93;100020.66;10459293;28;20060;-75
2022/08/22 07:07:37;;;;;;;6.90;5.38;;;;;;;16.64;88.96;100019.50;10460298;28;20085;-73
2022/08/22 07:12:44;;;;;;;6.18;5.18;;;;;;;16.62;90.31;100024.06;10459523;28;20080;-74
2022/08/22 07:17:51;;;;;;;5.55;4.65;;;;;;;16.86;86.66;100020.00;10440934;28;20445;-74
2022/08/22 07:22:59;;;;;;;6.82;5.25;;;;;;;16.77;87.88;100028.50;10459008;28;20037;-75
2022/08/22 07:28:44;;;;;;;6.93;4.90;;;;;;;17.02;86.25;100030.59;10458530;28;20047;-74
2022/08/22 07:34:13;;;;;;;14.27;4.82;;;;;;;17.25;84.01;100026.59;10277892;28;20058;-74
2022/08/22 07:39:35;;;;;;;4.75;4.00;;;;;;;17.32;84.63;100029.75;10291679;28;20533;-74
2022/08/22 07:44:52;;;;;;;5.35;4.07;;;;;;;17.51;81.07;100027.69;10292064;28;20047;-74
2022/08/22 07:50:03;;;;;;;3.97;3.00;;;;;;;17.82;77.22;100031.16;10294173;28;20046;-74
2022/08/22 07:55:19;;;;;;;6.95;2.97;;;;;;;18.57;72.36;100026.41;10294223;28;20054;-74
2022/08/22 08:00:22;;;;;;;7.10;3.63;;;;;;;18.04;74.29;100034.19;10293476;28;20055;-74
2022/08/22 08:05:29;;;;;;;10.45;3.75;;;;;;;18.58;73.72;100026.28;10344158;28;20049;-74
2022/08/22 08:10:34;;;;;;;5.10;3.15;;;;;;;19.04;70.79;100025.97;10459496;28;20415;-74
2022/08/22 08:15:38;;;;;;;3.92;2.58;;;;;;;18.99;71.40;100030.75;10459902;28;20486;-74
2022/08/22 08:20:40;;;;;;;4.90;3.45;;;;;;;18.93;71.39;100030.31;10469100;28;20056;-72
2022/08/22 08:25:56;;;;;;;5.03;3.65;;;;;;;19.15;70.47;100028.75;10450344;28;20449;-73
2022/08/22 08:31:06;;;;;;;7.85;3.55;;;;;;;19.46;71.11;100025.81;10466928;28;20052;-73
2022/08/22 08:36:25;;;;;;;6.15;3.03;;;;;;;20.05;68.40;100026.13;10466453;28;20051;-74
2022/08/22 08:41:48;;;;;;;4.88;2.65;;;;;;;20.53;66.32;100026.28;10448299;28;20075;-74
2022/08/22 08:47:22;;;;;;;6.18;3.55;;;;;;;20.63;64.87;100017.50;10447760;28;20485;-73
2022/08/22 08:52:36;;;;;;;3.90;2.83;;;;;;;20.61;66.02;100018.56;10432144;28;20053;-74
2022/08/22 08:57:55;;;;;;;5.38;2.85;;;;;;;20.75;65.54;100017.53;10465523;28;20045;-74
2022/08/22 09:03:13;;;;;;;5.75;2.72;;;;;;;20.89;64.27;100014.69;10465610;28;20041;-74
2022/08/22 09:08:41;;;;;;;8.23;2.80;;;;;;;20.81;65.56;100012.59;10464109;28;20045;-73
2022/08/22 09:13:48;;;;;;;4.28;2.40;;;;;;;21.16;63.78;100019.75;10446237;28;20045;-73
2022/08/22 09:19:28;;;;;;;6.07;2.42;;;;;;;21.21;62.87;100014.94;10463864;28;20069;-73
2022/08/22 09:24:58;;;;;;;3.70;1.45;;;;;;;21.25;58.55;100020.88;10464756;28;20045;-73
2022/08/22 09:30:04;;;;;;;4.15;1.83;;;;;;;21.13;60.10;100004.81;10463461;28;20044;-74
2022/08/22 09:35:17;;;;;;;4.23;1.80;;;;;;;20.90;57.89;100022.59;10445195;28;20049;-73
2022/08/22 09:40:36;;;;;;;3.15;1.15;;;;;;;21.01;59.27;100020.94;10464058;28;20490;-73
2022/08/22 09:46:00;;;;;;;3.60;1.02;;;;;;;21.19;53.53;100024.88;10463468;28;20051;-73
2022/08/22 09:51:10;;;;;;;3.63;1.07;;;;;;;21.25;54.26;100020.88;10463335;28;20490;-73
2022/08/22 09:56:37;;;;;;;2.50;1.00;;;;;;;21.27;54.33;100019.81;10445720;28;20037;-73
2022/08/22 10:01:56;;;;;;;3.42;1.23;;;;;;;21.24;54.06;100019.19;10462134;28;20049;-73
2022/08/22 10:07:25;;;;;;;3.25;1.20;;;;;;;21.24;54.50;100021.84;10461825;28;20064;-73
2022/08/22 10:12:41;;;;;;;2.92;1.13;;;;;;;21.47;53.57;100026.34;10461908;28;20040;-73
2022/08/22 10:18:08;;;;;;;3.88;1.38;;;;;;;21.54;54.15;100032.91;10461721;28;20044;-74
2022/08/22 10:23:22;;;;;;;1.92;1.00;;;;;;;21.59;53.58;100028.03;10462231;28;20072;-73
2022/08/22 10:28:43;;;;;;;2.55;1.08;;;;;;;22.22;53.38;100028.44;10462523;28;20065;-73
2022/08/22 10:34:10;;;;;;;2.40;1.00;;;;;;;22.97;52.48;100038.41;10461074;28;20131;-72
2022/08/22 10:39:20;;;;;;;2.05;1.23;;;;;;;23.24;50.09;100043.31;10460913;28;20431;-74
2022/08/22 10:44:51;;;;;;;1.98;1.10;;;;;;;23.75;49.42;100028.28;10442980;28;20080;-73
2022/08/22 10:50:01;;;;;;;3.40;1.40;;;;;;;23.45;47.68;100034.41;10442929;28;20045;-73
2022/08/22 10:55:25;;;;;;;2.70;1.30;;;;;;;23.02;50.01;100033.53;10444185;28;20051;-73
2022/08/22 11:00:53;;;;;;;3.35;1.63;;;;;;;23.21;50.78;100034.69;10461024;28;20275;-73
2022/08/22 11:06:02;;;;;;;2.85;1.50;;;;;;;23.06;49.60;100034.13;10460650;28;20140;-74
2022/08/22 11:11:09;;;;;;;2.15;1.30;;;;;;;23.08;49.87;100032.16;10460805;28;20406;-72
2022/08/22 11:16:15;;;;;;;3.15;1.80;;;;;;;22.46;51.37;100039.03;10459176;28;20109;-74
2022/08/22 11:21:36;;;;;;;;;;;;;;;22.22;51.31;100035.63;10443713;28;20529;-72
2022/08/22 11:26:57;;;;;;;2.00;1.13;;;;;;;22.12;52.68;100038.22;10458783;28;19921;-72
2022/08/22 11:32:21;;;;;;;2.03;1.17;;;;;;;22.15;51.92;100041.50;10458961;28;20458;-72
2022/08/22 11:37:39;;;;;;;8.05;1.52;;;;;;;22.32;51.40;100039.31;10423887;28;20055;-73
2022/08/22 11:43:06;;;;;;;4.43;1.10;;;;;;;22.43;51.19;100047.31;10441692;28;20116;-73
2022/08/22 11:48:24;;;;;;;3.33;1.25;;;;;;;22.54;51.30;100039.25;10442762;28;20036;-73
2022/08/22 11:53:41;;;;;;;1.38;1.00;;;;;;;22.57;49.79;100040.81;10452827;22;20053;-67
2022/08/22 11:59:03;;;;;;;4.35;1.25;;;;;;;22.72;49.67;100039.59;10456625;28;20041;-66
2022/08/22 12:04:19;;;;;;;3.22;1.23;;;;;;;22.56;50.56;100042.66;10456795;28;20041;-67
2022/08/22 12:09:40;;;;;;;2.28;0.98;;;;;;;22.28;50.86;100032.50;10438879;28;20045;-67
2022/08/22 12:15:11;;;;;;;2.08;1.15;;;;;;;22.33;51.23;100032.97;10457165;28;20041;-67
2022/08/22 12:20:22;;;;;;;2.53;1.13;;;;;;;22.20;50.43;100029.56;10456321;28;20449;-67
2022/08/22 12:25:43;;;;;;;2.47;1.10;;;;;;;22.35;50.78;100033.69;10455939;28;20041;-67
2022/08/22 12:31:01;;;;;;;3.10;1.42;;;;;;;22.71;50.27;100020.94;10438107;28;20529;-67
2022/08/22 12:36:22;;;;;;;3.17;1.45;;;;;;;22.42;51.20;100025.03;10455900;28;20119;-65
2022/08/22 12:42:00;;;;;;;2.88;1.10;;;;;;;22.36;50.77;100016.66;10455293;28;20045;-66
2022/08/22 12:47:16;;;;;;;3.10;1.30;;;;;;;22.48;51.17;100009.44;10455709;28;20120;-65
2022/08/22 12:52:55;;;;;;;3.70;1.65;;;;;;;22.50;51.78;100010.19;10455418;28;20056;-66
2022/08/22 12:58:22;;;;;;;3.83;1.20;;;;;;;22.36;51.06;99998.75;10455130;28;20103;-67
2022/08/22 13:03:41;;;;;;;2.70;1.30;;;;;;;22.25;50.36;100003.28;10441619;28;20041;-67
2022/08/22 13:08:44;;;;;;;2.85;1.20;;;;;;;22.24;51.54;100001.56;10445513;28;20060;-67
2022/08/22 13:13:59;;;;;;;3.38;1.42;;;;;;;22.05;52.14;99992.31;10462795;28;20468;-67
2022/08/22 13:19:06;;;;;;;3.08;1.30;;;;;;;22.00;52.07;99994.53;10462715;28;20041;-67
2022/08/22 13:24:27;;;;;;;1.85;1.10;;;;;;;21.90;52.69;100001.56;10462283;28;20044;-66
2022/08/22 13:29:58;;;;;;;1.52;1.13;;;;;;;21.84;52.58;99997.56;10462129;28;20127;-66
2022/08/22 13:35:00;;;;;;;2.50;1.20;;;;;;;21.70;51.60;100003.16;10462180;28;20045;-67
2022/08/22 13:40:08;;;;;;;4.15;1.10;;;;;;;21.54;52.39;100003.47;10461428;28;20037;-66
2022/08/22 13:45:20;;;;;;;2.90;1.20;;;;;;;21.56;51.55;100001.56;10461257;28;20069;-66
2022/08/22 13:50:27;;;;;;;1.83;1.20;;;;;;;21.25;52.24;99996.81;10460933;28;20045;-66
2022/08/22 13:55:50;;;;;;;1.45;1.20;;;;;;;21.16;52.43;99999.25;10444279;28;20048;-66
2022/08/22 14:01:13;;;;;;;1.80;1.38;;;;;;;21.33;52.46;99997.97;10462009;28;20090;-66
2022/08/22 14:06:29;;;;;;;3.80;1.30;;;;;;;21.70;50.69;99995.13;10460463;28;20040;-66
2022/08/22 14:11:47;;;;;;;2.85;1.35;;;;;;;21.53;51.64;99991.09;10460744;28;20475;-67
2022/08/22 14:16:55;;;;;;;3.42;1.20;;;;;;;21.55;51.41;99980.25;10459084;28;20037;-66
2022/08/22 14:21:59;;;;;;;2.75;1.20;;;;;;;21.38;51.23;99984.22;10460285;28;20049;-66
2022/08/22 14:27:11;;;;;;;3.95;1.70;;;;;;;21.45;50.96;99980.13;10459587;28;20550;-66
2022/08/22 14:32:18;;;;;;;3.28;1.30;;;;;;;21.42;51.88;99981.19;10459410;28;20094;-66
2022/08/22 14:37:31;;;;;;;2.38;1.10;;;;;;;21.47;51.39;99980.88;10459144;28;20041;-66
2022/08/22 14:42:50;;;;;;;3.08;1.40;;;;;;;21.39;51.19;99977.94;10460233;28;20040;-66
2022/08/22 14:48:04;;;;;;;1.60;0.93;;;;;;;21.48;52.20;99977.22;10458591;28;20048;-67
2022/08/22 14:53:30;;;;;;;7.07;1.40;;;;;;;21.45;51.36;99982.81;10458623;28;20450;-66
2022/08/22 14:59:04;;;;;;;2.60;1.30;;;;;;;21.48;50.32;99987.91;10459220;28;20033;-67
2022/08/22 15:04:13;;;;;;;2.87;1.20;;;;;;;21.49;50.92;99981.59;10390543;28;20061;-66
2022/08/22 15:09:25;;;;;;;1.42;0.90;;;;;;;21.45;50.77;99985.47;10458377;28;20041;-66
2022/08/22 15:14:36;;;;;;;1.98;1.00;;;;;;;21.38;51.07;99981.56;10440096;28;20055;-66
2022/08/22 15:19:41;;;;;;;3.80;1.20;;;;;;;21.17;51.39;99984.91;10458993;28;20032;-66
2022/08/22 15:24:54;;;;;;;1.80;1.10;;;;;;;21.19;50.58;99983.94;10457210;28;20072;-66
2022/08/22 15:30:07;;;;;;;2.75;1.20;;;;;;;21.09;50.69;99983.78;10458578;28;20098;-66
2022/08/22 15:35:30;;;;;;;2.10;1.42;;;;;;;21.08;51.36;99982.94;10457219;28;20044;-67
2022/08/22 15:40:41;;;;;;;2.45;1.35;;;;;;;21.02;51.84;99983.38;10457170;28;20095;-67
2022/08/22 15:45:49;;;;;;;2.40;1.33;;;;;;;21.03;52.79;99979.78;10456931;28;20037;-67
2022/08/22 15:50:57;;;;;;;3.75;1.45;;;;;;;20.93;54.45;99981.41;10457164;28;20041;-66
2022/08/22 15:56:01;;;;;;;3.50;1.65;;;;;;;20.90;55.77;99970.97;10457577;28;20355;-65
2022/08/22 16:01:11;;;;;;;3.58;1.30;;;;;;;20.73;56.22;99980.25;10456831;28;20041;-66
2022/08/22 16:06:52;;;;;;;2.55;1.10;;;;;;;20.55;54.38;99973.63;10456343;28;20424;-67
2022/08/22 16:11:56;;;;;;;3.03;1.30;;;;;;;20.57;54.27;99974.34;10455374;28;20079;-67
2022/08/22 16:17:16;;;;;;;1.45;1.00;;;;;;;20.36;54.00;99971.41;10421784;28;20061;-67
2022/08/22 16:22:18;;;;;;;3.22;1.20;;;;;;;20.27;54.16;99969.41;10456069;28;20076;-67
2022/08/22 16:27:24;;;;;;;1.48;1.00;;;;;;;20.28;53.63;99974.66;10455738;28;20406;-66
2022/08/22 16:32:27;;;;;;;;;;;;;;;20.37;52.25;99971.31;10456637;28;20501;-66
2022/08/22 16:37:48;;;;;;;3.28;1.20;;;;;;;20.31;52.11;99989.56;10458779;28;19947;-66
2022/08/22 16:43:10;;;;;;;2.50;1.10;;;;;;;20.21;53.40;99993.88;10464374;28;20479;-66
2022/08/22 16:48:32;;;;;;;2.85;1.38;;;;;;;20.23;53.62;99997.28;10463598;28;20044;-66
2022/08/22 16:53:36;;;;;;;2.03;1.30;;;;;;;20.18;53.98;99994.94;10463371;28;20041;-66
2022/08/22 16:58:57;;;;;;;2.30;1.27;;;;;;;20.21;54.20;100004.56;10431199;28;20467;-66
2022/08/22 17:04:52;;;;;;;1.75;1.10;;;;;;;20.29;54.61;100005.72;10463401;28;20052;-66
2022/08/22 17:10:12;;;;;;;1.63;1.17;;;;;;;20.44;54.10;100006.41;10433763;28;20059;-66
2022/08/22 17:15:16;;;;;;;1.45;1.27;;;;;;;20.07;56.68;100003.75;10462814;28;20506;-66
2022/08/22 17:20:36;;;;;;;2.50;1.20;;;;;;;20.08;57.02;100012.59;10462469;28;20503;-66
2022/08/22 17:25:47;;;;;;;3.22;1.20;;;;;;;19.88;58.98;100011.34;10462095;28;20045;-66
2022/08/22 17:31:04;;;;;;;2.10;1.20;;;;;;;20.01;58.59;100020.19;10463888;28;20432;-66
2022/08/22 17:36:22;;;;;;;2.33;1.63;;;;;;;20.06;57.66;100027.88;10462270;28;20049;-66
2022/08/22 17:41:48;;;;;;;3.60;1.48;;;;;;;20.08;57.43;100018.78;10461368;28;20137;-66
2022/08/22 17:46:52;;;;;;;2.28;1.40;;;;;;;19.97;57.85;100026.72;10461145;28;20045;-66
2022/08/22 17:52:04;;;;;;;2.80;1.30;;;;;;;19.85;58.43;100022.22;10475061;22;20048;-72
2022/08/22 17:57:24;;;;;;;1.67;1.10;;;;;;;19.77;58.94;100028.09;10463097;28;20052;-71
2022/08/22 18:02:39;;;;;;;2.13;1.30;;;;;;;19.64;60.37;100029.91;10464286;28;20414;-72
2022/08/22 18:07:43;;;;;;;2.80;1.30;;;;;;;19.56;60.06;100033.06;10463859;28;20045;-71
2022/08/22 18:13:15;;;;;;;2.47;1.42;;;;;;;19.55;60.69;100034.03;10463184;28;20044;-72
2022/08/22 18:18:29;;;;;;;2.85;1.42;;;;;;;19.53;61.32;100035.97;10463949;28;20037;-72
2022/08/22 18:23:41;;;;;;;1.88;1.25;;;;;;;19.55;59.61;100042.03;10463392;28;20049;-72
2022/08/22 18:28:52;;;;;;;2.55;1.50;;;;;;;19.45;59.85;100040.13;10463275;28;20071;-72
2022/08/22 18:34:06;;;;;;;1.40;1.20;;;;;;;19.38;60.67;100043.19;10445413;28;20045;-72
2022/08/22 18:39:20;;;;;;;2.27;1.20;;;;;;;19.20;62.15;100047.09;10465623;28;20054;-72
2022/08/22 18:44:31;;;;;;;3.15;1.45;;;;;;;19.26;61.62;100045.84;10429136;28;20053;-71
2022/08/22 18:49:33;;;;;;;2.97;1.60;;;;;;;19.07;64.03;100044.41;10445795;28;20044;-71
2022/08/22 18:54:43;;;;;;;4.13;1.58;;;;;;;19.10;63.39;100054.84;10462563;28;20049;-72
2022/08/22 18:59:54;;;;;;;2.25;1.48;;;;;;;19.11;64.15;100045.91;10463311;28;20041;-73
2022/08/22 19:05:18;;;;;;;3.75;1.50;;;;;;;19.16;63.03;100048.25;10463686;28;20052;-73
2022/08/22 19:10:36;;;;;;;1.88;1.30;;;;;;;19.18;61.13;100053.50;10463677;28;20045;-72
2022/08/22 19:15:46;;;;;;;3.08;1.30;;;;;;;18.97;61.48;100050.44;10460695;28;20048;-72
2022/08/22 19:26:38;;;;;;;2.30;1.50;;;;;;;18.95;62.53;100050.56;10459849;28;20037;-73
2022/08/22 19:31:51;;;;;;;2.70;1.53;;;;;;;18.99;62.93;100052.06;10459624;28;20486;-72
2022/08/22 19:37:11;;;;;;;1.80;1.35;;;;;;;18.96;62.00;100046.94;10440273;28;20163;-72
2022/08/22 19:42:35;;;;;;;2.40;1.85;;;;;;;18.83;64.66;100057.53;10444787;28;20489;-72
2022/08/22 19:47:41;;;;;;;1.95;1.40;;;;;;;18.81;61.95;100054.09;10440988;28;20045;-72
2022/08/22 19:52:58;;;;;;;2.85;1.40;;;;;;;18.80;62.33;100063.06;10460411;28;20409;-72
2022/08/22 19:58:29;;;;;;;2.78;1.60;;;;;;;18.69;63.82;100068.25;10425638;28;20041;-72
2022/08/22 20:03:47;;;;;;;2.15;1.80;;;;;;;18.66;63.78;100066.59;10460490;28;20418;-73
2022/08/22 20:09:24;;;;;;;3.20;1.60;;;;;;;18.51;64.98;100062.28;10425500;28;20053;-72
2022/08/22 20:14:32;;;;;;;3.90;2.03;;;;;;;18.47;67.74;100067.88;10291413;28;20055;-72
2022/08/22 20:19:40;;;;;;;3.33;3.03;;;;;;;18.41;68.84;100061.13;10293415;28;20493;-72
2022/08/22 20:24:51;;;;;;;2.80;1.80;;;;;;;18.46;67.27;100055.50;10292690;28;20063;-72
2022/08/22 20:30:06;;;;;;;3.55;2.60;;;;;;;18.36;69.16;100055.25;10292097;28;20051;-73
2022/08/22 20:35:14;;;;;;;2.95;1.80;;;;;;;18.23;70.90;100049.00;10291807;28;20584;-73
2022/08/22 20:40:46;;;;;;;2.55;2.08;;;;;;;18.08;75.29;100048.16;10275995;28;20051;-72
2022/08/22 20:46:07;;;;;;;3.97;2.50;;;;;;;17.97;74.49;100042.66;10292259;28;20150;-73
2022/08/22 20:51:16;;;;;;;3.85;3.40;;;;;;;17.98;74.31;100045.22;10415302;28;20057;-73
2022/08/22 20:56:36;;;;;;;2.83;1.83;;;;;;;18.18;73.39;100043.13;10439856;28;20423;-71
2022/08/22 21:01:38;;;;;;;3.85;1.90;;;;;;;18.14;74.20;100035.31;10458716;28;20049;-71
2022/08/22 21:06:39;;;;;;;5.93;1.90;;;;;;;17.70;81.31;100037.19;10459834;28;20037;-71
2022/08/22 21:11:49;;;;;;;2.63;1.70;;;;;;;17.59;82.23;100043.19;10442348;28;20067;-70
2022/08/22 21:16:52;;;;;;;4.43;2.42;;;;;;;17.56;86.00;100035.38;10441421;28;20045;-70
2022/08/22 21:22:14;;;;;;;3.70;2.30;;;;;;;17.57;87.55;100043.25;10441428;28;20525;-71
2022/08/22 21:27:26;;;;;;;3.95;2.42;;;;;;;17.62;89.98;100043.84;10467911;28;20057;-72
2022/08/22 21:32:36;;;;;;;3.25;2.47;;;;;;;17.52;92.08;100050.66;10466162;28;20116;-72
2022/08/22 21:37:44;;;;;;;7.63;3.75;;;;;;;17.23;97.97;100039.13;10447068;28;20063;-73
2022/08/22 21:43:04;;;;;;;4.25;3.20;;;;;;;17.07;100.00;100043.63;10464582;28;20055;-72
2022/08/22 21:48:44;;;;;;;4.55;3.38;;;;;;;17.12;100.00;100042.38;10463136;28;20049;-72
2022/08/22 21:53:46;;;;;;;3.13;2.75;;;;;;;16.93;100.00;100040.91;10462885;28;20494;-72
2022/08/22 21:59:20;;;;;;;5.68;4.18;;;;;;;17.03;100.00;100044.72;10447420;28;20045;-71
2022/08/22 22:04:25;;;;;;;5.72;4.68;;;;;;;16.86;100.00;100043.03;10445165;28;20399;-71
2022/08/22 22:09:28;;;;;;;4.63;3.25;;;;;;;16.79;100.00;100031.09;10463034;28;20045;-72
2022/08/22 22:14:30;;;;;;;4.68;3.70;;;;;;;16.76;100.00;100036.56;10462147;28;20045;-71
2022/08/22 22:19:33;;;;;;;4.60;3.78;;;;;;;16.79;100.00;100039.91;10461436;28;20107;-72
2022/08/22 22:24:35;;;;;;;4.40;3.60;;;;;;;16.75;100.00;100043.69;10461972;28;20049;-72
2022/08/22 22:29:36;;;;;;;3.83;3.53;;;;;;;16.73;100.00;100042.03;10460312;28;20041;-73
2022/08/22 22:34:38;;;;;;;3.95;3.55;;;;;;;16.64;100.00;100033.66;10460554;28;20056;-72
2022/08/22 22:39:41;;;;;;;5.18;3.70;;;;;;;16.81;100.00;100032.69;10443549;28;20098;-71
2022/08/22 22:44:43;;;;;;;5.45;4.65;;;;;;;16.62;100.00;100035.53;10460280;28;20048;-71
2022/08/22 22:49:48;;;;;;;4.97;4.47;;;;;;;16.55;100.00;100039.44;10460044;28;20487;-72
2022/08/22 22:54:51;;;;;;;5.05;4.55;;;;;;;16.47;100.00;100030.22;10460425;28;20041;-72
2022/08/22 22:59:52;;;;;;;6.47;4.82;;;;;;;16.46;100.00;100021.41;10460124;28;20069;-71
2022/08/22 23:04:55;;;;;;;5.13;4.40;;;;;;;16.55;100.00;100026.19;10459943;28;20044;-72
2022/08/22 23:09:57;;;;;;;4.13;3.83;;;;;;;16.78;100.00;100024.94;10459899;28;20490;-72
2022/08/22 23:15:03;;;;;;;4.93;4.40;;;;;;;16.63;100.00;100023.94;10459393;28;20045;-72
2022/08/22 23:20:06;;;;;;;4.93;4.47;;;;;;;16.72;100.00;100019.06;10459340;28;20069;-71
2022/08/22 23:25:08;;;;;;;6.05;5.18;;;;;;;16.55;100.00;100018.22;10459251;28;20055;-72
2022/08/22 23:30:10;;;;;;;5.95;5.43;;;;;;;16.37;100.00;100011.31;10459142;28;20037;-72
2022/08/22 23:35:12;;;;;;;6.80;6.13;;;;;;;16.21;100.00;100013.97;10441475;28;20041;-71
2022/08/22 23:40:14;;;;;;;7.20;6.18;;;;;;;16.23;100.00;100017.38;10441478;28;20486;-72
2022/08/22 23:45:15;;;;;;;5.20;4.70;;;;;;;16.55;100.00;100012.06;10458695;28;20051;-72
2022/08/22 23:50:17;;;;;;;6.55;5.05;;;;;;;16.71;100.00;100020.03;10459237;28;20043;-71
2022/08/22 23:55:19;;;;;;;5.25;4.85;;;;;;;16.33;100.00;100017.72;10458567;28;20056;-71
